Time;durP1;ratioP1;P1;durP2;ratioP2;P2;SDS_P1;SDS_P2;PMS_P1;PMS_P2;Temp;Humidity;BMP_temperature;BMP_pressure;BME280_temperature;BME280_humidity;BME280_pressure;Samples;Min_cycle;Max_cycle;Signal;HPM_P1;HPM_P2
2023/05/05 00:00:56;;;;;;;3.22;1.20;;;12.90;97.20;;;;;;5110683;28;20032;-66
2023/05/05 00:03:23;;;;;;;2.45;1.00;;;12.90;96.90;;;;;;5111343;28;20036;-65
2023/05/05 00:05:56;;;;;;;2.03;0.88;;;12.90;97.10;;;;;;5111273;28;20036;-67
2023/05/05 00:08:22;;;;;;;1.95;1.23;;;12.90;97.00;;;;;;5093524;28;20477;-67
2023/05/05 00:10:51;;;;;;;1.98;1.15;;;12.80;97.20;;;;;;5111303;28;20043;-66
2023/05/05 00:13:18;;;;;;;3.53;1.45;;;12.80;97.20;;;;;;5110965;28;20067;-66
2023/05/05 00:15:46;;;;;;;1.58;1.05;;;12.70;97.40;;;;;;5110480;28;20058;-66
2023/05/05 00:18:13;;;;;;;2.40;1.15;;;12.70;97.50;;;;;;5111247;28;20136;-66
2023/05/05 00:20:39;;;;;;;2.13;1.05;;;12.60;98.00;;;;;;5111762;28;20430;-66
2023/05/05 00:23:05;;;;;;;3.42;1.27;;;12.60;97.60;;;;;;5110745;28;20043;-67
2023/05/05 00:25:31;;;;;;;1.95;0.98;;;12.60;97.80;;;;;;5094068;28;20035;-67
2023/05/05 00:27:57;;;;;;;4.55;1.10;;;12.60;97.90;;;;;;5110439;28;20549;-66
2023/05/05 00:30:23;;;;;;;2.40;1.15;;;12.50;97.90;;;;;;5112237;28;20035;-66
2023/05/05 00:32:49;;;;;;;2.30;1.35;;;12.50;97.80;;;;;;5110825;28;20055;-66
2023/05/05 00:35:16;;;;;;;1.92;1.08;;;12.50;97.80;;;;;;5111476;28;20097;-66
2023/05/05 00:37:42;;;;;;;3.58;1.17;;;12.60;97.90;;;;;;5111611;28;20071;-67
2023/05/05 00:40:09;;;;;;;4.50;1.38;;;12.50;98.00;;;;;;5110676;28;20079;-66
2023/05/05 00:42:43;;;;;;;2.75;1.40;;;12.50;98.30;;;;;;5110025;28;20046;-66
2023/05/05 00:45:11;;;;;;;2.42;1.13;;;12.50;98.50;;;;;;5110828;28;20032;-66
2023/05/05 00:47:37;;;;;;;1.75;0.95;;;12.40;98.50;;;;;;5110397;28;20044;-65
2023/05/05 00:50:07;;;;;;;1.17;0.80;;;12.40;98.40;;;;;;5109742;28;20043;-65
2023/05/05 00:52:34;;;;;;;2.28;0.98;;;12.40;98.50;;;;;;5111576;28;20510;-66
2023/05/05 00:55:00;;;;;;;1.73;0.80;;;12.40;98.70;;;;;;5111532;28;20043;-66
2023/05/05 00:57:27;;;;;;;3.55;1.38;;;12.40;98.60;;;;;;5109815;28;20046;-66
2023/05/05 00:59:54;;;;;;;0.90;0.73;;;12.50;98.60;;;;;;5110155;28;20047;-67
2023/05/05 01:02:21;;;;;;;2.25;1.13;;;12.40;98.90;;;;;;5110243;28;20044;-66
2023/05/05 01:04:47;;;;;;;2.33;1.00;;;12.40;98.90;;;;;;5109567;28;20119;-66
2023/05/05 01:07:23;;;;;;;2.38;1.48;;;12.40;98.80;;;;;;5110124;28;20031;-67
2023/05/05 01:10:23;;;;;;;4.20;1.33;;;12.40;99.10;;;;;;5092593;28;20043;-67
2023/05/05 01:13:11;;;;;;;2.75;1.23;;;12.40;99.10;;;;;;5047863;28;20084;-67
2023/05/05 01:15:52;;;;;;;1.73;1.08;;;12.30;99.50;;;;;;5031372;28;20049;-66
2023/05/05 01:18:37;;;;;;;3.25;1.08;;;12.30;99.60;;;;;;5030675;28;20076;-67
2023/05/05 01:21:14;;;;;;;1.40;0.85;;;12.30;99.80;;;;;;5047887;28;20486;-66
2023/05/05 01:24:12;;;;;;;3.30;1.55;;;12.30;99.70;;;;;;5047324;28;20059;-67
2023/05/05 01:26:50;;;;;;;2.70;1.50;;;12.30;99.90;;;;;;5021198;28;20411;-66
2023/05/05 01:29:22;;;;;;;9.00;1.92;;;12.30;99.90;;;;;;5047880;28;20182;-67
2023/05/05 01:31:57;;;;;;;3.92;1.52;;;12.20;99.90;;;;;;5047239;28;20052;-66
2023/05/05 01:34:31;;;;;;;3.10;1.65;;;12.20;99.90;;;;;;5031157;28;20096;-67
2023/05/05 01:37:10;;;;;;;2.25;1.50;;;12.20;99.90;;;;;;5031064;28;20075;-67
2023/05/05 01:39:37;;;;;;;2.83;1.38;;;12.20;99.90;;;;;;5047375;28;20088;-67
2023/05/05 01:42:12;;;;;;;2.78;1.42;;;12.20;99.90;;;;;;5047624;28;20037;-66
2023/05/05 01:44:40;;;;;;;2.35;1.60;;;12.20;99.90;;;;;;5030329;28;20120;-67
2023/05/05 01:47:08;;;;;;;1.60;1.05;;;12.20;99.90;;;;;;5030900;28;20072;-66
2023/05/05 01:49:35;;;;;;;3.28;1.58;;;12.10;99.90;;;;;;5079523;28;20537;-66
2023/05/05 01:52:03;;;;;;;3.92;1.65;;;12.10;99.90;;;;;;5109967;28;20512;-66
2023/05/05 01:54:29;;;;;;;2.38;1.15;;;12.10;99.90;;;;;;5109295;28;20161;-66
2023/05/05 01:56:57;;;;;;;2.67;1.00;;;12.10;99.90;;;;;;5109196;28;20039;-67
2023/05/05 01:59:25;;;;;;;1.30;0.85;;;12.10;99.90;;;;;;5108568;28;20047;-67
2023/05/05 02:01:51;;;;;;;2.63;1.38;;;12.10;99.90;;;;;;5109574;28;20032;-67
2023/05/05 02:04:21;;;;;;;4.47;1.25;;;12.10;99.90;;;;;;5110325;28;20398;-67
2023/05/05 02:06:51;;;;;;;4.82;1.95;;;12.10;99.90;;;;;;5108727;28;20397;-66
2023/05/05 02:09:19;;;;;;;2.42;1.48;;;12.10;99.90;;;;;;5109301;28;20043;-67
2023/05/05 02:11:44;;;;;;;3.13;1.55;;;12.00;99.90;;;;;;5109156;28;20052;-67
2023/05/05 02:14:11;;;;;;;2.65;1.40;;;12.00;99.90;;;;;;5108373;28;20109;-66
2023/05/05 02:16:40;;;;;;;5.13;1.30;;;12.00;99.90;;;;;;5109084;28;20079;-67
2023/05/05 02:19:06;;;;;;;4.38;1.67;;;12.10;99.90;;;;;;5109109;28;20050;-67
2023/05/05 02:21:33;;;;;;;2.13;1.45;;;12.10;99.90;;;;;;5109912;28;20118;-66
2023/05/05 02:23:59;;;;;;;2.03;1.20;;;12.10;99.90;;;;;;5109229;28;20082;-67
2023/05/05 02:26:27;;;;;;;3.58;1.75;;;12.10;99.90;;;;;;5110321;28;20769;-67
2023/05/05 02:29:09;;;;;;;2.22;1.25;;;12.20;99.90;;;;;;5108661;28;20050;-67
2023/05/05 02:31:42;;;;;;;3.55;1.63;;;12.20;99.90;;;;;;5108949;28;20043;-66
2023/05/05 02:34:10;;;;;;;7.10;1.85;;;12.20;99.90;;;;;;5109490;28;20051;-67
2023/05/05 02:36:40;;;;;;;3.83;1.52;;;12.20;99.90;;;;;;5110009;28;20044;-67
2023/05/05 02:39:20;;;;;;;3.03;1.67;;;12.10;99.90;;;;;;5110626;28;20044;-67
2023/05/05 02:41:48;;;;;;;2.72;1.15;;;12.10;99.90;;;;;;5109970;28;20039;-66
2023/05/05 02:44:15;;;;;;;3.42;1.70;;;12.10;99.90;;;;;;5108787;28;20092;-66
2023/05/05 02:46:42;;;;;;;4.28;2.00;;;12.10;99.90;;;;;;5110059;28;20125;-67
2023/05/05 02:49:08;;;;;;;3.70;1.25;;;12.10;99.90;;;;;;5113678;28;20039;-67
2023/05/05 02:51:33;;;;;;;2.85;1.33;;;12.10;99.90;;;;;;5114203;28;20176;-67
2023/05/05 02:54:00;;;;;;;4.35;2.20;;;12.10;99.90;;;;;;5114119;28;20040;-66
2023/05/05 02:56:31;;;;;;;3.28;1.80;;;12.10;99.90;;;;;;5112011;28;20051;-66
2023/05/05 02:59:36;;;;;;;4.10;1.85;;;12.10;99.90;;;;;;5095708;28;20047;-66
2023/05/05 03:02:20;;;;;;;3.83;1.48;;;12.10;99.90;;;;;;5111753;28;20047;-65
2023/05/05 03:04:52;;;;;;;4.15;1.95;;;12.20;99.90;;;;;;5112269;28;20536;-66
2023/05/05 03:07:29;;;;;;;2.28;1.35;;;12.20;99.90;;;;;;5112303;28;20565;-66
2023/05/05 03:10:10;;;;;;;3.97;2.38;;;12.20;99.90;;;;;;5113533;28;20156;-66
2023/05/05 03:12:45;;;;;;;2.08;1.40;;;12.20;99.90;;;;;;5112420;28;20048;-65
2023/05/05 03:15:12;;;;;;;4.82;1.80;;;12.10;99.90;;;;;;5113904;28;20050;-65
2023/05/05 03:17:40;;;;;;;2.72;1.80;;;12.00;99.90;;;;;;5111618;28;20075;-65
2023/05/05 03:20:06;;;;;;;3.42;1.80;;;11.90;99.90;;;;;;5111989;28;20048;-65
2023/05/05 03:22:36;;;;;;;2.83;1.70;;;11.90;99.90;;;;;;5112077;28;20043;-65
2023/05/05 03:25:03;;;;;;;4.90;2.25;;;11.90;99.90;;;;;;5112238;28;20038;-66
2023/05/05 03:27:29;;;;;;;5.65;1.95;;;11.80;99.90;;;;;;5112252;28;20066;-65
2023/05/05 03:29:55;;;;;;;2.83;1.90;;;11.80;99.90;;;;;;5112750;28;20074;-65
2023/05/05 03:32:22;;;;;;;3.28;1.63;;;11.80;99.90;;;;;;5111886;28;20126;-64
2023/05/05 03:34:49;;;;;;;3.70;2.15;;;11.80;99.90;;;;;;5094703;28;20043;-65
2023/05/05 03:37:15;;;;;;;3.70;2.00;;;11.70;99.90;;;;;;5112239;28;20093;-65
2023/05/05 03:39:41;;;;;;;2.88;1.80;;;11.70;99.90;;;;;;5111685;28;20051;-65
2023/05/05 03:42:06;;;;;;;4.45;2.72;;;11.60;99.90;;;;;;5111915;28;20112;-64
2023/05/05 03:44:32;;;;;;;3.70;1.90;;;11.60;99.90;;;;;;5112681;28;20032;-64
2023/05/05 03:46:58;;;;;;;5.43;1.63;;;11.60;99.90;;;;;;5113181;28;20042;-63
2023/05/05 03:49:24;;;;;;;4.05;2.10;;;11.60;99.90;;;;;;5111502;28;20093;-63
2023/05/05 03:51:50;;;;;;;3.67;2.05;;;11.60;99.90;;;;;;5093821;28;20065;-61
2023/05/05 03:54:16;;;;;;;5.15;2.28;;;11.50;99.90;;;;;;5112849;28;20105;-61
2023/05/05 03:56:41;;;;;;;3.83;2.05;;;11.40;99.90;;;;;;5111658;28;20035;-61
2023/05/05 03:59:08;;;;;;;4.95;2.53;;;11.40;99.90;;;;;;5110473;28;20044;-61
2023/05/05 04:01:34;;;;;;;3.33;1.88;;;11.30;99.90;;;;;;5111414;28;20051;-61
2023/05/05 04:04:00;;;;;;;4.10;2.22;;;11.20;99.90;;;;;;5111132;28;20062;-61
2023/05/05 04:06:26;;;;;;;4.35;1.95;;;11.10;99.90;;;;;;5110715;28;20075;-61
2023/05/05 04:08:52;;;;;;;3.65;1.58;;;11.10;99.90;;;;;;5111364;28;20039;-61
2023/05/05 04:11:20;;;;;;;4.38;2.50;;;11.10;99.90;;;;;;5111465;28;20040;-61
2023/05/05 04:13:45;;;;;;;5.93;1.92;;;11.00;99.90;;;;;;5111699;28;20112;-61
2023/05/05 04:16:11;;;;;;;3.00;1.73;;;11.00;99.90;;;;;;5111318;28;20119;-61
2023/05/05 04:18:37;;;;;;;3.85;2.05;;;11.00;99.90;;;;;;5110363;28;20039;-61
2023/05/05 04:21:03;;;;;;;4.22;2.40;;;11.00;99.90;;;;;;5110822;28;20104;-61
2023/05/05 04:23:29;;;;;;;3.00;1.77;;;11.00;99.90;;;;;;5112457;28;20039;-61
2023/05/05 04:25:55;;;;;;;4.55;1.98;;;11.00;99.90;;;;;;5093301;28;20038;-61
2023/05/05 04:28:20;;;;;;;6.05;2.50;;;10.90;99.90;;;;;;5112053;28;20031;-61
2023/05/05 04:30:46;;;;;;;4.90;2.42;;;10.90;99.90;;;;;;5112390;28;20040;-61
2023/05/05 04:33:12;;;;;;;4.85;2.67;;;10.90;99.90;;;;;;5110310;28;20058;-61
2023/05/05 04:35:38;;;;;;;3.35;1.92;;;10.90;99.90;;;;;;5111974;28;20443;-61
2023/05/05 04:38:03;;;;;;;3.88;1.88;;;10.90;99.90;;;;;;5110671;28;20811;-61
2023/05/05 04:40:29;;;;;;;3.70;2.13;;;10.80;99.90;;;;;;5111653;28;20089;-61
2023/05/05 04:42:55;;;;;;;2.88;1.90;;;10.80;99.90;;;;;;5110496;28;20500;-62
2023/05/05 04:45:21;;;;;;;5.45;2.67;;;10.80;99.90;;;;;;5111966;28;20043;-61
2023/05/05 04:47:46;;;;;;;5.82;2.35;;;10.80;99.90;;;;;;5110037;28;20443;-61
2023/05/05 04:50:12;;;;;;;3.38;2.05;;;10.80;99.90;;;;;;5111940;28;20040;-61
2023/05/05 04:52:38;;;;;;;7.63;2.30;;;10.80;99.90;;;;;;5111804;28;20114;-61
2023/05/05 04:55:05;;;;;;;4.80;2.00;;;10.80;99.90;;;;;;5111241;28;20058;-61
2023/05/05 04:57:30;;;;;;;5.85;2.15;;;10.70;99.90;;;;;;5110234;28;20048;-62
2023/05/05 04:59:58;;;;;;;6.72;2.65;;;10.80;99.90;;;;;;5111512;28;20032;-62
2023/05/05 05:02:25;;;;;;;6.50;2.00;;;10.80;99.90;;;;;;5110655;28;20040;-61
2023/05/05 05:04:50;;;;;;;4.57;2.20;;;10.90;99.90;;;;;;5111415;28;20050;-62
2023/05/05 05:07:16;;;;;;;4.70;2.35;;;10.90;99.90;;;;;;5110075;28;20035;-61
2023/05/05 05:09:42;;;;;;;4.75;2.17;;;11.00;99.90;;;;;;5108783;28;20079;-62
2023/05/05 05:12:08;;;;;;;4.50;2.25;;;11.00;99.90;;;;;;5111599;28;20067;-62
2023/05/05 05:14:38;;;;;;;4.50;2.45;;;11.10;99.90;;;;;;5110633;28;20047;-62
2023/05/05 05:17:04;;;;;;;4.13;2.10;;;11.20;99.90;;;;;;5111129;28;20501;-62
2023/05/05 05:19:30;;;;;;;8.95;3.33;;;11.20;99.90;;;;;;5111200;28;20044;-62
2023/05/05 05:21:56;;;;;;;5.47;2.60;;;11.30;99.90;;;;;;5109116;28;20043;-62
2023/05/05 05:24:23;;;;;;;4.50;1.92;;;11.30;99.90;;;;;;5109702;28;20050;-62
2023/05/05 05:26:49;;;;;;;4.75;2.20;;;11.30;99.90;;;;;;5111107;28;20431;-62
2023/05/05 05:29:15;;;;;;;5.70;2.67;;;11.40;99.90;;;;;;5109075;28;20471;-62
2023/05/05 05:31:41;;;;;;;5.20;2.38;;;11.40;99.90;;;;;;5109545;28;20054;-61
2023/05/05 05:34:06;;;;;;;4.53;2.28;;;11.40;99.90;;;;;;5109494;28;20047;-60
2023/05/05 05:36:32;;;;;;;5.95;2.40;;;11.50;99.90;;;;;;5108751;28;20126;-62
2023/05/05 05:38:58;;;;;;;4.10;2.20;;;11.50;99.90;;;;;;5111215;28;20027;-62
2023/05/05 05:41:24;;;;;;;4.32;2.65;;;11.50;99.90;;;;;;5111054;28;20049;-62
2023/05/05 05:43:50;;;;;;;6.15;2.03;;;11.60;99.90;;;;;;5108869;28;20085;-62
2023/05/05 05:46:15;;;;;;;5.32;2.50;;;11.60;99.90;;;;;;5109410;28;20088;-62
2023/05/05 05:48:41;;;;;;;4.63;2.78;;;11.70;99.90;;;;;;5110719;28;20063;-62
2023/05/05 05:51:07;;;;;;;4.15;2.10;;;11.70;99.90;;;;;;5108660;28;20063;-61
2023/05/05 05:53:33;;;;;;;4.72;2.22;;;11.80;99.90;;;;;;5109279;28;20043;-62
2023/05/05 05:56:00;;;;;;;5.80;3.22;;;11.70;99.90;;;;;;5110891;28;20058;-62
2023/05/05 05:58:26;;;;;;;6.95;2.42;;;11.70;99.90;;;;;;5108669;28;20046;-62
2023/05/05 06:00:51;;;;;;;3.03;1.92;;;11.70;99.90;;;;;;5109170;28;20048;-62
2023/05/05 06:03:17;;;;;;;5.35;2.80;;;11.70;99.90;;;;;;5109296;28;20036;-62
2023/05/05 06:05:45;;;;;;;4.68;2.65;;;11.90;99.90;;;;;;5109975;28;20389;-62
2023/05/05 06:08:10;;;;;;;5.72;2.75;;;12.10;99.90;;;;;;5109176;28;20035;-63
2023/05/05 06:10:36;;;;;;;4.22;2.38;;;12.20;99.90;;;;;;5110060;28;20126;-63
2023/05/05 06:13:02;;;;;;;5.05;2.80;;;12.40;99.90;;;;;;5108969;28;20132;-63
2023/05/05 06:15:28;;;;;;;5.10;3.17;;;12.50;99.90;;;;;;5098322;28;20055;-63
2023/05/05 06:17:54;;;;;;;4.72;2.50;;;12.70;99.90;;;;;;5089746;28;20047;-63
2023/05/05 06:20:19;;;;;;;4.72;2.72;;;12.90;99.90;;;;;;5088833;28;20032;-64
2023/05/05 06:22:45;;;;;;;4.85;3.15;;;13.10;99.90;;;;;;5095406;28;20468;-64
2023/05/05 06:25:11;;;;;;;6.78;2.58;;;13.30;99.90;;;;;;5095700;28;20039;-64
2023/05/05 06:27:36;;;;;;;7.15;3.28;;;13.50;99.90;;;;;;5113575;28;20067;-64
2023/05/05 06:30:02;;;;;;;4.25;2.28;;;13.70;99.90;;;;;;5114463;28;20040;-64
2023/05/05 06:32:28;;;;;;;5.60;2.47;;;14.00;99.90;;;;;;5112426;28;20080;-65
2023/05/05 06:34:54;;;;;;;7.10;3.22;;;14.40;99.90;;;;;;5112736;28;20083;-65
2023/05/05 06:37:19;;;;;;;5.50;3.17;;;14.70;99.90;;;;;;5113219;28;20039;-65
2023/05/05 06:39:45;;;;;;;5.97;3.28;;;15.00;99.90;;;;;;5113850;28;20051;-65
2023/05/05 06:42:11;;;;;;;4.03;2.53;;;15.30;99.90;;;;;;5113293;28;20073;-65
2023/05/05 06:44:37;;;;;;;4.00;2.33;;;15.60;99.90;;;;;;5112920;28;20546;-65
2023/05/05 06:47:02;;;;;;;3.97;2.47;;;15.90;99.90;;;;;;5112447;28;20055;-65
2023/05/05 06:49:28;;;;;;;6.22;2.95;;;16.10;99.90;;;;;;5095084;28;20035;-65
2023/05/05 06:51:54;;;;;;;3.92;2.13;;;16.30;99.90;;;;;;5095872;28;20043;-65
2023/05/05 06:54:20;;;;;;;4.65;2.20;;;16.60;99.90;;;;;;5111930;28;20508;-65
2023/05/05 06:56:45;;;;;;;5.05;2.63;;;16.80;99.90;;;;;;5112121;28;20055;-65
2023/05/05 06:59:11;;;;;;;5.50;2.38;;;17.00;99.90;;;;;;5113003;28;20100;-64
2023/05/05 07:01:37;;;;;;;4.85;2.97;;;17.00;99.90;;;;;;5112888;28;20080;-64
2023/05/05 07:04:03;;;;;;;4.32;2.72;;;17.10;99.90;;;;;;5113518;28;20122;-64
2023/05/05 07:06:29;;;;;;;2.80;2.08;;;17.30;99.90;;;;;;5113877;28;20047;-64
2023/05/05 07:08:54;;;;;;;4.28;2.10;;;17.40;99.90;;;;;;5113519;28;20107;-64
2023/05/05 07:11:20;;;;;;;8.60;2.65;;;17.40;99.90;;;;;;5112248;28;20039;-64
2023/05/05 07:13:48;;;;;;;4.75;2.78;;;17.50;99.90;;;;;;5111594;28;20062;-64
2023/05/05 07:16:13;;;;;;;5.72;2.80;;;17.70;99.90;;;;;;5112201;28;20104;-64
2023/05/05 07:18:39;;;;;;;4.60;2.55;;;17.90;99.90;;;;;;5112139;28;20043;-64
2023/05/05 07:21:05;;;;;;;6.95;2.78;;;18.00;99.90;;;;;;5112940;28;20086;-65
2023/05/05 07:23:31;;;;;;;8.00;3.00;;;18.10;99.90;;;;;;5112124;28;20039;-64
2023/05/05 07:25:58;;;;;;;6.07;3.45;;;18.10;99.90;;;;;;5113550;28;20044;-64
2023/05/05 07:28:23;;;;;;;5.22;2.90;;;18.20;99.90;;;;;;5111498;28;20044;-64
2023/05/05 07:30:50;;;;;;;5.35;2.63;;;18.40;99.90;;;;;;5112023;28;20032;-64
2023/05/05 07:33:17;;;;;;;4.82;2.50;;;18.50;99.90;;;;;;5111136;28;20441;-64
2023/05/05 07:35:43;;;;;;;3.90;2.67;;;18.60;99.90;;;;;;5112688;28;20473;-64
2023/05/05 07:38:09;;;;;;;5.95;2.92;;;18.70;99.90;;;;;;5112535;28;20040;-64
2023/05/05 07:40:35;;;;;;;9.63;3.35;;;18.70;99.90;;;;;;5111787;28;20036;-64
2023/05/05 07:43:01;;;;;;;4.32;2.80;;;18.60;99.90;;;;;;5094429;28;20081;-64
2023/05/05 07:45:28;;;;;;;8.13;3.28;;;18.60;99.90;;;;;;5113036;27;20042;-64
2023/05/05 07:47:54;;;;;;;4.38;2.83;;;18.60;99.90;;;;;;5112939;28;20039;-63
2023/05/05 07:50:20;;;;;;;5.97;3.30;;;18.60;99.90;;;;;;5111231;28;20420;-64
2023/05/05 07:52:45;;;;;;;7.55;3.55;;;18.60;99.90;;;;;;5111861;28;20036;-63
2023/05/05 07:55:11;;;;;;;7.35;3.63;;;18.50;99.90;;;;;;5113144;28;20374;-64
2023/05/05 07:57:37;;;;;;;6.72;3.28;;;18.40;99.90;;;;;;5110825;28;20035;-63
2023/05/05 08:00:04;;;;;;;9.10;4.15;;;18.20;99.90;;;;;;5112332;28;20047;-63
2023/05/05 08:02:29;;;;;;;8.27;3.85;;;18.20;99.90;;;;;;5112532;28;20040;-65
2023/05/05 08:04:55;;;;;;;8.20;4.00;;;18.10;99.90;;;;;;5110727;28;20042;-63
2023/05/05 08:07:21;;;;;;;7.72;3.65;;;18.00;99.90;;;;;;5111485;28;20043;-63
2023/05/05 08:09:47;;;;;;;8.63;4.32;;;18.00;99.90;;;;;;5110505;28;20455;-64
2023/05/05 08:12:14;;;;;;;7.68;4.40;;;18.00;99.90;;;;;;5111226;28;20044;-65
2023/05/05 08:14:41;;;;;;;9.38;4.07;;;18.00;99.90;;;;;;5110908;28;20122;-63
2023/05/05 08:17:07;;;;;;;7.15;3.95;;;17.90;99.90;;;;;;5110644;28;20374;-65
2023/05/05 08:19:33;;;;;;;8.90;4.72;;;18.00;99.90;;;;;;5111072;28;20069;-65
2023/05/05 08:22:00;;;;;;;7.68;4.35;;;18.10;99.90;;;;;;5110916;28;20124;-66
2023/05/05 08:24:26;;;;;;;7.13;3.88;;;18.10;99.90;;;;;;5112034;28;20054;-66
2023/05/05 08:26:51;;;;;;;9.45;4.18;;;18.10;99.90;;;;;;5112176;28;20036;-65
2023/05/05 08:29:20;;;;;;;10.15;4.50;;;18.30;99.90;;;;;;5112114;28;20031;-63
2023/05/05 08:31:45;;;;;;;8.05;4.25;;;18.50;99.90;;;;;;5110386;28;20503;-64
2023/05/05 08:34:11;;;;;;;9.95;3.85;;;18.80;99.90;;;;;;5110755;28;20119;-65
2023/05/05 08:36:37;;;;;;;8.20;4.18;;;19.10;99.90;;;;;;5110884;28;20099;-65
2023/05/05 08:39:03;;;;;;;7.68;3.50;;;19.30;99.90;;;;;;5110331;28;20493;-64
2023/05/05 08:41:28;;;;;;;6.47;3.45;;;19.50;99.90;;;;;;5110616;28;20518;-64
2023/05/05 08:43:54;;;;;;;5.32;3.00;;;19.70;99.90;;;;;;5111816;28;20481;-64
2023/05/05 08:46:21;;;;;;;10.43;3.88;;;19.80;99.90;;;;;;5111186;28;20165;-65
2023/05/05 08:48:47;;;;;;;8.70;3.22;;;20.00;99.90;;;;;;5111963;28;20695;-66
2023/05/05 08:51:18;;;;;;;8.55;2.88;;;20.10;99.90;;;;;;5111817;28;20058;-64
2023/05/05 08:53:53;;;;;;;6.80;1.95;;;20.20;99.90;;;;;;5109850;28;20122;-64
2023/05/05 08:56:23;;;;;;;5.85;3.17;;;20.10;99.90;;;;;;5110942;28;20051;-63
2023/05/05 08:58:51;;;;;;;8.63;2.80;;;20.10;99.90;;;;;;5092523;28;20036;-64
2023/05/05 09:01:17;;;;;;;6.47;2.80;;;20.00;99.90;;;;;;5110142;28;20493;-65
2023/05/05 09:03:44;;;;;;;7.15;2.60;;;19.90;99.90;;;;;;5109295;28;20459;-65
2023/05/05 09:06:11;;;;;;;4.88;2.40;;;19.70;99.90;;;;;;5108357;28;20043;-65
2023/05/05 09:08:38;;;;;;;6.30;2.78;;;19.60;99.90;;;;;;5109012;28;20039;-64
2023/05/05 09:11:05;;;;;;;4.85;2.85;;;19.40;99.90;;;;;;5110192;28;20480;-65
2023/05/05 09:13:33;;;;;;;3.80;2.38;;;19.40;99.90;;;;;;5108901;28;20086;-65
2023/05/05 09:15:59;;;;;;;4.38;2.40;;;19.50;99.90;;;;;;5108875;28;20462;-64
2023/05/05 09:18:25;;;;;;;6.30;3.10;;;19.50;99.90;;;;;;5109789;28;20083;-64
2023/05/05 09:20:51;;;;;;;5.20;2.92;;;19.50;99.90;;;;;;5109432;28;20042;-65
2023/05/05 09:23:20;;;;;;;7.30;3.35;;;19.50;99.90;;;;;;5108670;28;20115;-65
2023/05/05 09:26:01;;;;;;;6.22;3.13;;;19.60;99.90;;;;;;5108581;28;20039;-65
2023/05/05 09:28:26;;;;;;;5.60;2.85;;;19.70;99.90;;;;;;5090914;28;20070;-65
2023/05/05 09:30:52;;;;;;;3.70;2.60;;;19.70;99.90;;;;;;5108378;28;20078;-64
2023/05/05 09:33:38;;;;;;;9.77;3.03;;;19.80;99.90;;;;;;5108736;28;20055;-64
2023/05/05 09:36:04;;;;;;;6.97;3.00;;;19.80;99.90;;;;;;5090990;28;20063;-65
2023/05/05 09:38:30;;;;;;;4.40;2.35;;;19.70;99.90;;;;;;5108267;28;20039;-64
2023/05/05 09:40:56;;;;;;;5.68;2.65;;;19.70;99.90;;;;;;5109124;28;20097;-66
2023/05/05 09:43:22;;;;;;;5.22;1.95;;;19.90;99.90;;;;;;5108077;28;20404;-64
2023/05/05 09:45:49;;;;;;;5.90;2.55;;;20.00;99.90;;;;;;5108418;28;20061;-64
2023/05/05 09:48:25;;;;;;;4.88;1.90;;;20.00;99.90;;;;;;5107858;28;20042;-64
2023/05/05 09:50:51;;;;;;;3.47;2.05;;;20.00;99.90;;;;;;5108402;28;20418;-65
2023/05/05 09:53:17;;;;;;;3.55;2.20;;;20.00;99.90;;;;;;5108245;28;20048;-65
2023/05/05 09:55:57;;;;;;;5.75;1.75;;;19.90;99.90;;;;;;5107354;28;20134;-65
2023/05/05 09:58:25;;;;;;;3.42;1.73;;;19.70;99.90;;;;;;5108004;28;20125;-64
2023/05/05 10:00:51;;;;;;;2.85;1.58;;;19.90;99.90;;;;;;5108088;28;20413;-64
2023/05/05 10:03:17;;;;;;;2.38;1.33;;;20.50;99.90;;;;;;5107655;28;20427;-64
2023/05/05 10:05:54;;;;;;;3.20;1.63;;;20.70;99.90;;;;;;5090935;28;20073;-65
2023/05/05 10:08:29;;;;;;;4.07;1.83;;;20.80;99.90;;;;;;5108174;28;20450;-64
2023/05/05 10:11:00;;;;;;;7.40;2.35;;;20.70;99.90;;;;;;5107335;28;20043;-65
2023/05/05 10:13:27;;;;;;;4.57;2.38;;;20.60;99.90;;;;;;5105738;28;20418;-65
2023/05/05 10:15:55;;;;;;;4.30;2.28;;;20.40;99.90;;;;;;5107400;28;20047;-64
2023/05/05 10:18:26;;;;;;;5.03;2.15;;;20.30;99.90;;;;;;5109332;28;20047;-65
2023/05/05 10:21:00;;;;;;;5.13;2.33;;;20.10;99.90;;;;;;5107667;28;20044;-65
2023/05/05 10:23:46;;;;;;;4.53;2.13;;;20.00;99.90;;;;;;5108916;28;20473;-65
2023/05/05 10:26:13;;;;;;;3.67;2.05;;;19.80;99.90;;;;;;5090923;28;20039;-65
2023/05/05 10:28:55;;;;;;;5.20;2.20;;;19.80;99.90;;;;;;5108084;28;20040;-65
2023/05/05 10:31:45;;;;;;;4.60;2.40;;;20.00;99.90;;;;;;5107104;28;20561;-65
2023/05/05 10:34:29;;;;;;;4.65;2.65;;;20.30;99.90;;;;;;5109130;28;20079;-65
2023/05/05 10:36:59;;;;;;;5.18;2.47;;;20.50;99.90;;;;;;5107256;28;20043;-65
2023/05/05 10:39:26;;;;;;;6.70;2.55;;;20.80;99.90;;;;;;5107402;28;20099;-65
2023/05/05 10:41:52;;;;;;;4.68;2.15;;;21.00;99.90;;;;;;5108816;28;20382;-66
2023/05/05 10:44:19;;;;;;;7.57;2.33;;;21.10;99.90;;;;;;5106725;28;20035;-65
2023/05/05 10:46:45;;;;;;;4.22;1.30;;;21.20;99.90;;;;;;5107278;28;20050;-65
2023/05/05 10:49:41;;;;;;;2.85;1.40;;;21.20;99.90;;;;;;5107360;28;20043;-64
2023/05/05 10:52:29;;;;;;;2.45;1.27;;;21.00;99.90;;;;;;5071289;28;20126;-66
2023/05/05 10:55:10;;;;;;;3.15;1.50;;;20.70;99.90;;;;;;5107951;28;20392;-65
2023/05/05 10:57:40;;;;;;;4.32;1.55;;;20.40;99.90;;;;;;5106940;28;20492;-66
2023/05/05 11:00:07;;;;;;;3.47;1.58;;;20.30;99.90;;;;;;5107148;28;20505;-66
2023/05/05 11:02:34;;;;;;;4.13;1.73;;;20.30;99.90;;;;;;5108540;28;20489;-66
2023/05/05 11:05:16;;;;;;;2.38;1.13;;;20.30;99.90;;;;;;5108161;28;20056;-67
2023/05/05 11:07:48;;;;;;;2.55;1.00;;;20.40;99.90;;;;;;5090129;28;20044;-68
2023/05/05 11:10:16;;;;;;;2.35;1.08;;;20.50;99.90;;;;;;5110946;28;20047;-65
2023/05/05 11:13:07;;;;;;;1.90;0.75;;;20.60;99.90;;;;;;5110483;28;20035;-67
2023/05/05 11:15:36;;;;;;;2.35;0.77;;;20.50;99.90;;;;;;5099442;28;20055;-66
2023/05/05 11:18:04;;;;;;;2.75;0.80;;;20.50;99.90;;;;;;5111113;28;20044;-66
2023/05/05 11:20:35;;;;;;;2.53;1.13;;;20.40;99.90;;;;;;5111658;28;20032;-66
2023/05/05 11:23:01;;;;;;;3.03;0.70;;;20.30;99.90;;;;;;5111152;28;20036;-66
2023/05/05 11:25:37;;;;;;;3.00;0.68;;;20.10;99.90;;;;;;5110686;28;20039;-67
2023/05/05 11:28:13;;;;;;;2.55;1.15;;;19.80;99.90;;;;;;5110940;28;20514;-67
2023/05/05 11:30:59;;;;;;;2.65;1.17;;;19.70;99.90;;;;;;5110753;28;20039;-65
2023/05/05 11:33:34;;;;;;;2.15;0.90;;;19.50;99.90;;;;;;5075496;28;20048;-66
2023/05/05 11:36:04;;;;;;;2.28;0.95;;;19.30;99.90;;;;;;5110749;28;20169;-65
2023/05/05 11:38:51;;;;;;;1.48;0.80;;;19.10;99.90;;;;;;5093532;28;20047;-67
2023/05/05 11:41:26;;;;;;;2.45;0.82;;;18.90;99.90;;;;;;5110931;28;20554;-66
2023/05/05 11:44:12;;;;;;;3.13;0.95;;;18.90;99.90;;;;;;5110106;28;20036;-67
2023/05/05 11:46:50;;;;;;;2.90;1.05;;;18.80;99.90;;;;;;5109621;28;20501;-67
2023/05/05 11:49:48;;;;;;;1.73;1.10;;;18.60;99.90;;;;;;5111780;28;20115;-66
2023/05/05 11:52:14;;;;;;;1.55;0.75;;;18.50;99.90;;;;;;5066366;28;20051;-66
2023/05/05 11:54:46;;;;;;;2.08;0.93;;;18.30;99.90;;;;;;5092827;28;20370;-65
2023/05/05 11:57:13;;;;;;;2.80;1.23;;;18.00;99.90;;;;;;5093045;28;20497;-66
2023/05/05 12:00:08;;;;;;;2.38;0.82;;;17.90;99.90;;;;;;5093081;28;20035;-66
2023/05/05 12:02:34;;;;;;;2.13;1.15;;;17.70;99.90;;;;;;5092208;28;20054;-65
2023/05/05 12:05:01;;;;;;;2.60;1.15;;;17.60;99.90;;;;;;5110094;28;20031;-66
2023/05/05 12:07:30;;;;;;;4.60;1.90;;;17.40;99.90;;;;;;5109773;28;20046;-66
2023/05/05 12:09:56;;;;;;;3.20;1.65;;;17.20;99.90;;;;;;5092147;28;20035;-65
2023/05/05 12:12:39;;;;;;;2.63;1.75;;;17.10;99.90;;;;;;5110020;28;20499;-66
2023/05/05 12:15:06;;;;;;;2.58;1.38;;;16.80;99.90;;;;;;5108051;28;20377;-65
2023/05/05 12:17:50;;;;;;;3.35;1.33;;;16.60;99.90;;;;;;5110087;28;20039;-65
2023/05/05 12:20:16;;;;;;;4.95;1.50;;;16.40;99.90;;;;;;5109292;28;20050;-66
2023/05/05 12:22:42;;;;;;;2.58;1.48;;;16.30;99.90;;;;;;5109103;28;20036;-65
2023/05/05 12:25:09;;;;;;;3.08;1.08;;;16.20;99.90;;;;;;5109726;28;20366;-66
2023/05/05 12:27:35;;;;;;;4.97;1.60;;;16.00;99.90;;;;;;5109417;28;20032;-64
2023/05/05 12:30:15;;;;;;;2.53;1.30;;;15.90;99.90;;;;;;5108850;28;20062;-63
2023/05/05 12:32:41;;;;;;;3.15;1.35;;;15.70;99.90;;;;;;5110827;28;20046;-64
2023/05/05 12:35:08;;;;;;;3.38;1.30;;;15.60;99.90;;;;;;5109077;28;20400;-63
2023/05/05 12:37:34;;;;;;;4.63;2.10;;;15.50;99.90;;;;;;5108436;28;20092;-63
2023/05/05 12:40:00;;;;;;;1.85;0.98;;;15.40;99.90;;;;;;5108829;28;20061;-63
2023/05/05 12:42:26;;;;;;;3.58;1.00;;;15.30;99.90;;;;;;5110523;28;20039;-64
2023/05/05 12:44:52;;;;;;;2.55;1.05;;;15.10;99.90;;;;;;5109831;28;20080;-63
2023/05/05 12:47:31;;;;;;;1.88;0.93;;;14.90;99.90;;;;;;5110542;28;20481;-62
2023/05/05 12:49:58;;;;;;;1.73;0.90;;;14.70;99.90;;;;;;5108679;28;20044;-62
2023/05/05 12:52:42;;;;;;;1.75;0.82;;;14.60;99.90;;;;;;5110135;28;20031;-62
2023/05/05 12:55:08;;;;;;;1.80;1.00;;;14.50;99.90;;;;;;5109145;28;20043;-64
2023/05/05 12:57:35;;;;;;;2.88;1.08;;;14.60;99.90;;;;;;5108458;28;20035;-64